createdAt,value
2019-02-26T00:00:28.178Z,0.00
2019-02-26T00:01:28.700Z,0.00
2019-02-26T00:02:28.927Z,0.00
2019-02-26T00:03:29.205Z,0.00
2019-02-26T00:04:29.845Z,0.00
2019-02-26T00:05:28.956Z,0.00
2019-02-26T00:06:30.115Z,0.00
2019-02-26T00:07:29.841Z,0.00
2019-02-26T00:08:29.634Z,0.00
2019-02-26T00:09:29.993Z,0.00
2019-02-26T00:10:29.040Z,0.00
2019-02-26T00:11:29.033Z,0.00
2019-02-26T00:12:28.699Z,0.00
2019-02-26T00:13:29.585Z,0.00
2019-02-26T00:14:30.244Z,0.00
2019-02-26T00:15:31.303Z,0.00
2019-02-26T00:16:29.045Z,0.00
2019-02-26T00:17:28.000Z,0.00
2019-02-26T00:18:28.030Z,0.00
2019-02-26T00:19:27.977Z,0.00
2019-02-26T00:20:30.933Z,0.00
2019-02-26T00:21:29.309Z,0.00
2019-02-26T00:22:29.589Z,0.00
2019-02-26T00:23:30.024Z,0.00
2019-02-26T00:24:30.548Z,0.00
2019-02-26T00:25:27.910Z,0.00
2019-02-26T00:26:27.943Z,0.00
2019-02-26T00:27:28.661Z,0.00
2019-02-26T00:28:27.879Z,0.00
2019-02-26T00:29:29.740Z,0.00
2019-02-26T00:30:27.855Z,0.00
2019-02-26T00:31:28.741Z,0.00
2019-02-26T00:32:29.818Z,0.00
2019-02-26T00:33:28.994Z,0.00
2019-02-26T00:34:27.812Z,0.00
2019-02-26T00:35:27.881Z,0.00
2019-02-26T00:36:29.724Z,0.00
2019-02-26T00:37:28.456Z,0.00
2019-02-26T00:38:27.769Z,0.00
2019-02-26T00:39:29.716Z,0.00
2019-02-26T00:40:27.752Z,0.00
2019-02-26T00:41:29.141Z,0.00
2019-02-26T00:42:28.893Z,0.00
2019-02-26T00:43:29.841Z,0.00
2019-02-26T00:44:29.752Z,0.00
2019-02-26T00:45:29.556Z,0.00
2019-02-26T00:46:28.467Z,0.00
2019-02-26T00:47:29.898Z,0.00
2019-02-26T00:48:27.705Z,0.00
2019-02-26T00:49:28.509Z,0.00
2019-02-26T00:50:28.141Z,0.00
2019-02-26T00:51:27.674Z,0.00
2019-02-26T00:52:28.251Z,0.00
2019-02-26T00:53:28.481Z,0.00
2019-02-26T00:54:29.226Z,0.00
2019-02-26T00:55:29.842Z,0.00
2019-02-26T00:56:29.441Z,0.00
2019-02-26T00:57:29.462Z,0.00
2019-02-26T00:58:27.554Z,0.00
2019-02-26T00:59:27.542Z,0.00
2019-02-26T01:00:28.524Z,0.00
2019-02-26T01:01:27.524Z,0.00
2019-02-26T01:02:27.591Z,0.00
2019-02-26T01:03:27.499Z,0.00
2019-02-26T01:04:27.488Z,0.00
2019-02-26T01:05:27.478Z,0.00
2019-02-26T01:06:29.060Z,0.00
2019-02-26T01:07:28.265Z,0.00
2019-02-26T01:08:27.444Z,0.00
2019-02-26T01:09:29.342Z,0.00
2019-02-26T01:10:27.447Z,0.00
2019-02-26T01:11:27.992Z,0.00
2019-02-26T01:12:27.401Z,0.00
2019-02-26T01:13:28.446Z,0.00
2019-02-26T01:14:27.380Z,0.00
2019-02-26T01:15:27.368Z,0.00
2019-02-26T01:16:27.361Z,0.00
2019-02-26T01:17:27.388Z,0.00
2019-02-26T01:18:28.974Z,0.00
2019-02-26T01:19:27.325Z,0.00
2019-02-26T01:20:28.001Z,0.00
2019-02-26T01:21:29.110Z,0.00
2019-02-26T01:22:27.336Z,0.00
2019-02-26T01:23:28.922Z,0.00
2019-02-26T01:24:28.079Z,0.00
2019-02-26T01:25:27.261Z,0.00
2019-02-26T01:26:27.871Z,0.00
2019-02-26T01:27:27.240Z,0.00
2019-02-26T01:28:29.215Z,0.00
2019-02-26T01:29:27.804Z,0.00
2019-02-26T01:30:29.398Z,0.00
2019-02-26T01:31:29.095Z,0.00
2019-02-26T01:32:27.188Z,0.00
2019-02-26T01:33:29.757Z,0.00
2019-02-26T01:34:27.207Z,0.00
2019-02-26T01:35:28.847Z,0.00
2019-02-26T01:36:27.179Z,0.00
2019-02-26T01:37:27.853Z,0.00
2019-02-26T01:38:27.122Z,0.00
2019-02-26T01:39:27.111Z,0.00
2019-02-26T01:40:27.144Z,0.00
2019-02-26T01:41:27.353Z,0.00
2019-02-26T01:42:29.269Z,0.00
2019-02-26T01:43:27.067Z,0.00
2019-02-26T01:44:30.434Z,0.00
2019-02-26T01:45:29.905Z,0.00
2019-02-26T01:46:27.034Z,0.00
2019-02-26T01:47:28.528Z,0.00
2019-02-26T01:48:27.013Z,0.00
2019-02-26T01:49:28.528Z,0.00
2019-02-26T01:50:28.418Z,0.00
2019-02-26T01:51:28.608Z,0.00
2019-02-26T01:52:26.969Z,0.00
2019-02-26T01:53:27.433Z,0.00
2019-02-26T01:54:28.276Z,0.00
2019-02-26T01:55:27.626Z,0.00
2019-02-26T01:56:26.925Z,0.00
2019-02-26T01:57:27.755Z,0.00
2019-02-26T01:58:26.904Z,0.00
2019-02-26T01:59:26.893Z,0.00
2019-02-26T02:00:26.887Z,0.00
2019-02-26T02:01:26.884Z,0.00
2019-02-26T02:02:28.245Z,0.00
2019-02-26T02:03:28.020Z,0.00
2019-02-26T02:04:26.840Z,0.00
2019-02-26T02:05:29.482Z,0.00
2019-02-26T02:06:26.829Z,0.00
2019-02-26T02:07:28.745Z,0.00
2019-02-26T02:08:26.837Z,0.00
2019-02-26T02:09:26.783Z,0.00
2019-02-26T02:10:26.774Z,0.00
2019-02-26T02:11:30.628Z,0.00
2019-02-26T02:12:29.500Z,0.00
2019-02-26T02:13:28.752Z,0.00
2019-02-26T02:14:26.729Z,0.00
2019-02-26T02:15:26.718Z,0.00
2019-02-26T02:16:29.042Z,0.00
2019-02-26T02:17:28.671Z,0.00
2019-02-26T02:18:29.352Z,0.00
2019-02-26T02:19:27.612Z,0.00
2019-02-26T02:20:26.726Z,0.00
2019-02-26T02:21:30.423Z,0.00
2019-02-26T02:22:26.644Z,0.00
2019-02-26T02:23:28.039Z,0.00
2019-02-26T02:24:26.674Z,0.00
2019-02-26T02:25:28.965Z,0.00
2019-02-26T02:26:26.600Z,0.00
2019-02-26T02:27:28.160Z,0.00
2019-02-26T02:28:28.604Z,0.00
2019-02-26T02:29:28.529Z,0.00
2019-02-26T02:30:30.359Z,0.00
2019-02-26T02:31:30.375Z,0.00
2019-02-26T02:32:28.660Z,0.00
2019-02-26T02:33:29.364Z,0.00
2019-02-26T02:34:29.332Z,0.00
2019-02-26T02:35:26.571Z,0.00
2019-02-26T02:36:26.803Z,0.00
2019-02-26T02:37:27.447Z,0.00
2019-02-26T02:38:26.517Z,0.00
2019-02-26T02:39:29.054Z,0.00
2019-02-26T02:40:26.448Z,0.00
2019-02-26T02:41:26.437Z,0.00
2019-02-26T02:42:26.429Z,0.00
2019-02-26T02:43:26.416Z,0.00
2019-02-26T02:44:26.451Z,0.00
2019-02-26T02:45:26.394Z,0.00
2019-02-26T02:46:26.385Z,0.00
2019-02-26T02:47:28.538Z,0.00
2019-02-26T02:48:26.362Z,0.00
2019-02-26T02:49:26.351Z,0.00
2019-02-26T02:50:26.343Z,0.00
2019-02-26T02:51:28.158Z,0.00
2019-02-26T02:52:27.186Z,0.00
2019-02-26T02:53:27.419Z,0.00
2019-02-26T02:54:26.299Z,0.00
2019-02-26T02:55:26.287Z,0.00
2019-02-26T02:56:26.273Z,0.00
2019-02-26T02:57:26.940Z,0.00
2019-02-26T02:58:26.255Z,0.00
2019-02-26T02:59:28.187Z,0.00
2019-02-26T03:00:28.488Z,0.00
2019-02-26T03:01:28.629Z,0.00
2019-02-26T03:02:26.211Z,0.00
2019-02-26T03:03:26.197Z,0.00
2019-02-26T03:04:29.056Z,0.00
2019-02-26T03:05:26.179Z,0.00
2019-02-26T03:06:28.092Z,0.00
2019-02-26T03:07:27.378Z,0.00
2019-02-26T03:08:26.145Z,0.00
2019-02-26T03:09:26.135Z,0.00
2019-02-26T03:10:30.532Z,0.00
2019-02-26T03:11:26.110Z,0.00
2019-02-26T03:12:26.103Z,0.00
2019-02-26T03:13:28.007Z,0.00
2019-02-26T03:14:26.079Z,0.00
2019-02-26T03:15:27.393Z,0.00
2019-02-26T03:16:27.181Z,0.00
2019-02-26T03:17:26.094Z,0.00
2019-02-26T03:18:26.034Z,0.00
2019-02-26T03:19:26.065Z,0.00
2019-02-26T03:20:28.694Z,0.00
2019-02-26T03:21:27.888Z,0.00
2019-02-26T03:22:25.996Z,0.00
2019-02-26T03:23:25.985Z,0.00
2019-02-26T03:24:28.404Z,0.00
2019-02-26T03:25:27.198Z,0.00
2019-02-26T03:26:28.005Z,0.00
2019-02-26T03:27:27.976Z,0.00
2019-02-26T03:28:26.932Z,0.00
2019-02-26T03:29:25.916Z,0.00
2019-02-26T03:30:32.879Z,0.00
2019-02-26T03:31:33.744Z,0.00
2019-02-26T03:32:26.885Z,0.00
2019-02-26T03:33:25.915Z,0.00
2019-02-26T03:34:26.084Z,0.00
2019-02-26T03:35:25.850Z,0.00
2019-02-26T03:36:25.842Z,0.00
2019-02-26T03:37:28.492Z,0.00
2019-02-26T03:38:26.995Z,0.00
2019-02-26T03:39:25.848Z,0.00
2019-02-26T03:40:27.252Z,0.00
2019-02-26T03:41:28.325Z,0.00
2019-02-26T03:42:25.775Z,0.00
2019-02-26T03:43:25.773Z,0.00
2019-02-26T03:44:29.569Z,0.00
2019-02-26T03:45:25.751Z,0.00
2019-02-26T03:46:25.738Z,0.00
2019-02-26T03:47:25.759Z,0.00
2019-02-26T03:48:25.714Z,0.00
2019-02-26T03:49:27.082Z,0.00
2019-02-26T03:50:27.064Z,0.00
2019-02-26T03:51:25.679Z,0.00
2019-02-26T03:52:25.709Z,0.00
2019-02-26T03:53:28.102Z,0.00
2019-02-26T03:54:25.683Z,0.00
2019-02-26T03:55:25.642Z,0.00
2019-02-26T03:56:25.619Z,0.00
2019-02-26T03:57:25.660Z,0.00
2019-02-26T03:58:25.599Z,0.00
2019-02-26T03:59:25.634Z,0.00
2019-02-26T04:00:25.578Z,0.00
2019-02-26T04:01:25.568Z,0.00
2019-02-26T04:02:25.601Z,0.00
2019-02-26T04:03:25.546Z,0.00
2019-02-26T04:04:26.134Z,0.00
2019-02-26T04:05:25.526Z,0.00
2019-02-26T04:06:25.512Z,0.00
2019-02-26T04:07:27.861Z,0.00
2019-02-26T04:08:27.146Z,0.00
2019-02-26T04:09:25.505Z,0.00
2019-02-26T04:10:25.467Z,0.00
2019-02-26T04:11:27.690Z,0.00
2019-02-26T04:12:25.447Z,0.00
2019-02-26T04:13:25.436Z,0.00
2019-02-26T04:14:26.350Z,0.00
2019-02-26T04:15:27.873Z,0.00
2019-02-26T04:16:25.451Z,0.00
2019-02-26T04:17:28.013Z,0.00
2019-02-26T04:18:25.383Z,0.00
2019-02-26T04:19:26.770Z,0.00
2019-02-26T04:20:27.754Z,0.00
2019-02-26T04:21:25.349Z,0.00
2019-02-26T04:22:26.408Z,0.00
2019-02-26T04:23:25.326Z,0.00
2019-02-26T04:24:26.010Z,0.00
2019-02-26T04:25:27.837Z,0.00
2019-02-26T04:26:29.045Z,0.00
2019-02-26T04:27:25.281Z,0.00
2019-02-26T04:28:30.775Z,0.00
2019-02-26T04:29:26.265Z,0.00
2019-02-26T04:30:25.250Z,0.00
2019-02-26T04:31:25.240Z,0.00
2019-02-26T04:32:25.271Z,0.00
2019-02-26T04:33:27.315Z,0.00
2019-02-26T04:34:25.247Z,0.00
2019-02-26T04:35:25.240Z,0.00
2019-02-26T04:36:25.189Z,0.00
2019-02-26T04:37:27.249Z,0.00
2019-02-26T04:38:26.723Z,0.00
2019-02-26T04:39:25.192Z,0.00
2019-02-26T04:40:28.324Z,0.00
2019-02-26T04:41:26.179Z,0.00
2019-02-26T04:42:25.119Z,0.00
2019-02-26T04:43:25.943Z,0.00
2019-02-26T04:44:26.853Z,0.00
2019-02-26T04:45:25.087Z,0.00
2019-02-26T04:46:26.048Z,0.00
2019-02-26T04:47:26.788Z,0.00
2019-02-26T04:48:26.951Z,0.00
2019-02-26T04:49:27.039Z,0.00
2019-02-26T04:50:28.603Z,0.00
2019-02-26T04:51:25.026Z,0.00
2019-02-26T04:52:25.056Z,0.00
2019-02-26T04:53:25.807Z,0.00
2019-02-26T04:54:27.162Z,0.00
2019-02-26T04:55:29.009Z,0.00
2019-02-26T04:56:24.969Z,0.00
2019-02-26T04:57:24.954Z,0.00
2019-02-26T04:58:24.989Z,0.00
2019-02-26T04:59:24.934Z,0.00
2019-02-26T05:00:27.729Z,0.00
2019-02-26T05:01:24.913Z,0.00
2019-02-26T05:02:24.946Z,0.00
2019-02-26T05:03:24.904Z,0.00
2019-02-26T05:04:24.890Z,0.00
2019-02-26T05:05:25.867Z,0.00
2019-02-26T05:06:24.897Z,0.00
2019-02-26T05:07:24.848Z,0.00
2019-02-26T05:08:24.835Z,0.00
2019-02-26T05:09:27.282Z,0.00
2019-02-26T05:10:27.060Z,0.00
2019-02-26T05:11:31.424Z,0.00
2019-02-26T05:12:28.046Z,0.00
2019-02-26T05:13:27.007Z,0.00
2019-02-26T05:14:24.811Z,0.00
2019-02-26T05:15:26.522Z,0.00
2019-02-26T05:16:26.614Z,0.00
2019-02-26T05:17:29.639Z,0.00
2019-02-26T05:18:26.526Z,0.00
2019-02-26T05:19:24.724Z,0.00
2019-02-26T05:20:24.704Z,0.00
2019-02-26T05:21:27.120Z,0.00
2019-02-26T05:22:25.739Z,0.00
2019-02-26T05:23:25.987Z,0.00
2019-02-26T05:24:26.326Z,0.00
2019-02-26T05:25:24.651Z,0.00
2019-02-26T05:26:24.636Z,0.00
2019-02-26T05:27:25.097Z,0.00
2019-02-26T05:28:24.618Z,0.00
2019-02-26T05:29:24.605Z,0.00
2019-02-26T05:30:24.644Z,0.00
2019-02-26T05:31:24.584Z,0.00
2019-02-26T05:32:27.208Z,0.00
2019-02-26T05:33:27.674Z,0.00
2019-02-26T05:34:25.969Z,0.00
2019-02-26T05:35:25.325Z,0.00
2019-02-26T05:36:24.566Z,0.00
2019-02-26T05:37:28.492Z,0.00
2019-02-26T05:38:26.437Z,0.00
2019-02-26T05:39:26.703Z,0.00
2019-02-26T05:40:24.544Z,0.00
2019-02-26T05:41:24.476Z,0.00
2019-02-26T05:42:24.469Z,0.00
2019-02-26T05:43:26.446Z,0.00
2019-02-26T05:44:24.441Z,0.00
2019-02-26T05:45:26.559Z,0.00
2019-02-26T05:46:26.912Z,0.00
2019-02-26T05:47:26.557Z,0.00
2019-02-26T05:48:25.944Z,0.00
2019-02-26T05:49:24.429Z,0.00
2019-02-26T05:50:24.376Z,0.00
2019-02-26T05:51:25.041Z,0.00
2019-02-26T05:52:27.256Z,0.00
2019-02-26T05:53:25.342Z,0.00
2019-02-26T05:54:24.547Z,0.00
2019-02-26T05:55:25.627Z,0.00
2019-02-26T05:56:24.353Z,4.00
2019-02-26T05:57:31.273Z,4.00
2019-02-26T05:58:25.311Z,4.00
2019-02-26T05:59:24.277Z,4.00
2019-02-26T06:00:26.290Z,8.00
2019-02-26T06:01:25.050Z,4.00
2019-02-26T06:02:24.639Z,8.00
2019-02-26T06:03:24.240Z,8.00
2019-02-26T06:04:24.272Z,12.00
2019-02-26T06:05:26.172Z,16.00
2019-02-26T06:06:24.249Z,16.00
2019-02-26T06:07:27.533Z,20.00
2019-02-26T06:08:26.760Z,24.00
2019-02-26T06:09:26.154Z,32.00
2019-02-26T06:10:25.173Z,36.00
2019-02-26T06:11:28.298Z,44.00
2019-02-26T06:12:25.138Z,52.00
2019-02-26T06:13:24.125Z,60.00
2019-02-26T06:14:25.568Z,68.00
2019-02-26T06:15:25.906Z,80.00
2019-02-26T06:16:24.807Z,92.00
2019-02-26T06:17:24.143Z,108.00
2019-02-26T06:18:24.093Z,124.00
2019-02-26T06:19:24.063Z,144.00
2019-02-26T06:20:26.164Z,164.00
2019-02-26T06:21:25.933Z,188.00
2019-02-26T06:22:26.652Z,212.00
2019-02-26T06:23:25.532Z,240.00
2019-02-26T06:24:24.831Z,268.00
2019-02-26T06:25:24.649Z,300.00
2019-02-26T06:26:28.106Z,336.00
2019-02-26T06:27:27.332Z,372.00
2019-02-26T06:28:23.966Z,416.00
2019-02-26T06:29:24.736Z,460.00
2019-02-26T06:30:23.944Z,512.00
2019-02-26T06:31:24.926Z,564.00
2019-02-26T06:32:27.522Z,624.00
2019-02-26T06:33:23.912Z,680.00
2019-02-26T06:34:23.899Z,740.00
2019-02-26T06:35:23.935Z,804.00
2019-02-26T06:36:25.606Z,864.00
2019-02-26T06:37:24.506Z,928.00
2019-02-26T06:38:25.830Z,988.00
2019-02-26T06:39:24.584Z,1052.00
2019-02-26T06:40:23.885Z,1112.00
2019-02-26T06:41:23.951Z,1176.00
2019-02-26T06:42:23.830Z,1236.00
2019-02-26T06:43:23.800Z,1300.00
2019-02-26T06:44:23.823Z,1360.00
2019-02-26T06:45:23.782Z,1420.00
2019-02-26T06:46:23.768Z,1480.00
2019-02-26T06:47:26.052Z,1540.00
2019-02-26T06:48:25.021Z,1604.00
2019-02-26T06:49:24.605Z,1664.00
2019-02-26T06:50:23.756Z,1720.00
2019-02-26T06:51:25.800Z,1780.00
2019-02-26T06:52:23.709Z,1844.00
2019-02-26T06:53:23.791Z,1912.00
2019-02-26T06:54:24.948Z,1968.00
2019-02-26T06:55:23.674Z,2024.00
2019-02-26T06:56:23.669Z,2084.00
2019-02-26T06:57:23.665Z,2144.00
2019-02-26T06:58:23.649Z,2192.00
2019-02-26T06:59:25.178Z,2244.00
2019-02-26T07:00:25.326Z,2296.00
2019-02-26T07:01:23.612Z,2348.00
2019-02-26T07:02:28.244Z,2392.00
2019-02-26T07:03:24.965Z,2444.00
2019-02-26T07:04:23.629Z,2488.00
2019-02-26T07:05:24.494Z,2532.00
2019-02-26T07:06:25.512Z,2572.00
2019-02-26T07:07:23.652Z,2620.00
2019-02-26T07:08:24.201Z,2660.00
2019-02-26T07:09:23.616Z,2704.00
2019-02-26T07:10:26.098Z,2744.00
2019-02-26T07:11:25.563Z,2784.00
2019-02-26T07:12:24.098Z,2820.00
2019-02-26T07:13:23.536Z,2864.00
2019-02-26T07:14:24.963Z,2904.00
2019-02-26T07:15:23.964Z,2940.00
2019-02-26T07:16:23.447Z,2980.00
2019-02-26T07:17:23.447Z,3012.00
2019-02-26T07:18:23.427Z,3052.00
2019-02-26T07:19:23.438Z,3088.00
2019-02-26T07:20:23.459Z,3124.00
2019-02-26T07:21:23.386Z,3164.00
2019-02-26T07:22:23.380Z,3196.00
2019-02-26T07:23:23.374Z,3228.00
2019-02-26T07:24:24.844Z,3260.00
2019-02-26T07:25:23.422Z,3292.00
2019-02-26T07:26:23.332Z,3328.00
2019-02-26T07:27:23.358Z,3368.00
2019-02-26T07:28:26.441Z,3404.00
2019-02-26T07:29:23.301Z,3440.00
2019-02-26T07:30:24.174Z,3472.00
2019-02-26T07:31:24.276Z,3516.00
2019-02-26T07:32:24.624Z,3548.00
2019-02-26T07:33:23.328Z,3584.00
2019-02-26T07:34:25.083Z,3620.00
2019-02-26T07:35:23.297Z,3648.00
2019-02-26T07:36:24.097Z,3684.00
2019-02-26T07:37:23.315Z,3720.00
2019-02-26T07:38:25.093Z,3748.00
2019-02-26T07:39:23.329Z,3784.00
2019-02-26T07:40:23.217Z,3816.00
2019-02-26T07:41:25.433Z,3844.00
2019-02-26T07:42:23.828Z,3876.00
2019-02-26T07:43:24.231Z,3904.00
2019-02-26T07:44:24.144Z,3936.00
2019-02-26T07:45:24.980Z,3960.00
2019-02-26T07:46:23.321Z,3988.00
2019-02-26T07:47:24.412Z,4016.00
2019-02-26T07:48:23.733Z,4048.00
2019-02-26T07:49:24.026Z,4068.00
2019-02-26T07:50:23.151Z,4092.00
2019-02-26T07:51:23.106Z,4108.00
2019-02-26T07:52:26.017Z,4120.00
2019-02-26T07:53:24.624Z,4128.00
2019-02-26T07:54:23.135Z,4128.00
2019-02-26T07:55:23.205Z,4132.00
2019-02-26T07:56:25.496Z,4132.00
2019-02-26T07:57:25.730Z,4128.00
2019-02-26T07:58:23.135Z,4128.00
2019-02-26T07:59:27.570Z,4128.00
2019-02-26T08:00:23.120Z,4140.00
2019-02-26T08:01:23.021Z,4156.00
2019-02-26T08:02:23.059Z,4176.00
2019-02-26T08:03:24.729Z,4200.00
2019-02-26T08:04:22.976Z,4228.00
2019-02-26T08:06:48.381Z,4292.00
2019-02-26T08:09:07.082Z,4340.00
2019-02-26T08:10:07.627Z,4368.00
2019-02-26T08:11:04.745Z,4388.00
2019-02-26T08:12:06.612Z,4412.00
2019-02-26T08:13:07.489Z,4448.00
2019-02-26T08:14:04.751Z,4468.00
2019-02-26T08:15:07.762Z,4500.00
2019-02-26T08:16:05.213Z,4520.00
2019-02-26T08:17:06.300Z,4552.00
2019-02-26T08:18:05.331Z,4572.00
2019-02-26T08:19:05.292Z,4592.00
2019-02-26T08:20:07.455Z,4608.00
2019-02-26T08:21:05.158Z,4624.00
2019-02-26T08:22:04.605Z,4640.00
2019-02-26T08:23:04.607Z,4656.00
2019-02-26T08:24:04.652Z,4668.00
2019-02-26T08:25:04.620Z,4676.00
2019-02-26T08:26:04.616Z,4692.00
2019-02-26T08:27:06.071Z,4700.00
2019-02-26T08:28:04.545Z,4712.00
2019-02-26T08:29:05.694Z,4724.00
2019-02-26T08:30:06.714Z,4728.00
2019-02-26T08:31:05.395Z,4736.00
2019-02-26T08:32:04.553Z,4748.00
2019-02-26T08:33:06.809Z,4764.00
2019-02-26T08:34:04.485Z,4776.00
2019-02-26T08:35:04.488Z,4788.00
2019-02-26T08:36:04.467Z,4796.00
2019-02-26T08:37:04.520Z,4808.00
2019-02-26T08:38:06.267Z,4824.00
2019-02-26T08:39:04.423Z,4836.00
2019-02-26T08:40:04.415Z,4844.00
2019-02-26T08:41:04.420Z,4852.00
2019-02-26T08:42:04.408Z,4864.00
2019-02-26T08:43:04.438Z,4876.00
2019-02-26T08:44:04.943Z,4880.00
2019-02-26T08:45:04.363Z,4888.00
2019-02-26T08:46:04.379Z,4892.00
2019-02-26T08:47:08.776Z,4896.00
2019-02-26T08:48:05.391Z,4900.00
2019-02-26T08:49:08.308Z,4908.00
2019-02-26T08:50:07.387Z,4916.00
2019-02-26T08:51:08.153Z,4920.00
2019-02-26T08:52:05.433Z,4928.00
2019-02-26T08:53:05.065Z,4932.00
2019-02-26T08:54:04.413Z,4940.00
2019-02-26T08:55:04.370Z,4944.00
2019-02-26T08:56:04.278Z,4944.00
2019-02-26T08:57:04.264Z,4948.00
2019-02-26T08:58:04.291Z,4948.00
2019-02-26T08:59:04.319Z,4956.00
2019-02-26T09:00:04.334Z,4960.00
2019-02-26T09:01:04.209Z,4964.00
2019-02-26T09:02:04.207Z,4976.00
2019-02-26T09:03:04.154Z,4980.00
2019-02-26T09:04:04.221Z,4984.00
2019-02-26T09:05:06.718Z,4992.00
2019-02-26T09:06:12.842Z,5000.00
2019-02-26T09:07:05.250Z,5004.00
2019-02-26T09:08:05.655Z,5012.00
2019-02-26T09:09:05.114Z,5008.00
2019-02-26T09:10:06.982Z,5016.00
2019-02-26T09:11:05.730Z,5024.00
2019-02-26T09:12:04.159Z,5024.00
2019-02-26T09:13:06.165Z,5032.00
2019-02-26T09:14:06.544Z,5036.00
2019-02-26T09:15:04.056Z,5048.00
2019-02-26T09:16:06.116Z,5064.00
2019-02-26T09:17:04.503Z,5060.00
2019-02-26T09:18:04.065Z,5060.00
2019-02-26T09:19:04.041Z,5068.00
2019-02-26T09:20:09.372Z,5072.00
2019-02-26T09:21:07.075Z,5076.00
2019-02-26T09:22:03.949Z,5080.00
2019-02-26T09:23:03.952Z,5084.00
2019-02-26T09:24:07.096Z,5088.00
2019-02-26T09:25:06.239Z,5092.00
2019-02-26T09:26:06.601Z,5096.00
2019-02-26T09:27:05.067Z,5100.00
2019-02-26T09:28:04.436Z,5104.00
2019-02-26T09:29:04.236Z,5108.00
2019-02-26T09:30:05.770Z,5108.00
2019-02-26T09:31:06.286Z,5116.00
2019-02-26T09:32:06.675Z,5116.00
2019-02-26T09:33:05.844Z,5120.00
2019-02-26T09:34:04.727Z,5124.00
2019-02-26T09:35:04.776Z,5132.00
2019-02-26T09:36:03.784Z,5136.00
2019-02-26T09:37:05.760Z,5140.00
2019-02-26T09:38:03.778Z,5140.00
2019-02-26T09:39:05.741Z,5144.00
2019-02-26T09:40:04.878Z,5144.00
2019-02-26T09:41:03.784Z,5148.00
2019-02-26T09:42:04.218Z,5152.00
2019-02-26T09:43:05.934Z,5156.00
2019-02-26T09:44:06.215Z,5156.00
2019-02-26T09:45:03.700Z,5160.00
2019-02-26T09:46:04.402Z,5164.00
2019-02-26T09:47:05.354Z,5160.00
2019-02-26T09:48:03.662Z,5164.00
2019-02-26T09:49:05.086Z,5172.00
2019-02-26T09:50:04.632Z,5176.00
2019-02-26T09:51:04.891Z,5180.00
2019-02-26T09:52:04.418Z,5180.00
2019-02-26T09:53:03.607Z,5180.00
2019-02-26T09:54:03.607Z,5188.00
2019-02-26T09:55:03.586Z,5184.00
2019-02-26T09:56:03.571Z,5192.00
2019-02-26T09:57:03.558Z,5192.00
2019-02-26T09:58:03.613Z,5184.00
2019-02-26T09:59:05.133Z,5192.00
2019-02-26T10:00:03.555Z,5188.00
2019-02-26T10:01:03.540Z,5192.00
2019-02-26T10:02:04.116Z,5200.00
2019-02-26T10:03:05.485Z,5204.00
2019-02-26T10:04:05.412Z,5212.00
2019-02-26T10:05:04.003Z,5216.00
2019-02-26T10:06:03.612Z,5216.00
2019-02-26T10:07:04.278Z,5224.00
2019-02-26T10:08:05.343Z,5228.00
2019-02-26T10:09:03.492Z,5228.00
2019-02-26T10:10:05.933Z,5228.00
2019-02-26T10:11:04.982Z,5228.00
2019-02-26T10:12:06.920Z,5232.00
2019-02-26T10:13:06.115Z,5240.00
2019-02-26T10:14:05.405Z,5244.00
2019-02-26T10:15:05.219Z,5252.00
2019-02-26T10:16:04.503Z,5256.00
2019-02-26T10:17:03.520Z,5256.00
2019-02-26T10:18:07.195Z,5260.00
2019-02-26T10:19:04.350Z,5260.00
2019-02-26T10:20:05.020Z,5264.00
2019-02-26T10:21:03.345Z,5264.00
2019-02-26T10:22:06.390Z,5272.00
2019-02-26T10:23:06.380Z,5272.00
2019-02-26T10:24:04.593Z,5276.00
2019-02-26T10:25:03.283Z,5280.00
2019-02-26T10:26:05.229Z,5284.00
2019-02-26T10:27:05.930Z,5288.00
2019-02-26T10:28:06.174Z,5284.00
2019-02-26T10:29:04.853Z,5292.00
2019-02-26T10:30:07.162Z,5292.00
2019-02-26T10:31:04.876Z,5296.00
2019-02-26T10:32:03.226Z,5300.00
2019-02-26T10:33:03.189Z,5304.00
2019-02-26T10:34:07.759Z,5308.00
2019-02-26T10:35:04.631Z,5304.00
2019-02-26T10:36:05.353Z,5300.00
2019-02-26T10:37:03.116Z,5312.00
2019-02-26T10:38:05.833Z,5304.00
2019-02-26T10:39:04.081Z,5296.00
2019-02-26T10:40:03.098Z,5304.00
2019-02-26T10:41:05.110Z,5308.00
2019-02-26T10:42:04.278Z,5320.00
2019-02-26T10:43:03.051Z,5332.00
2019-02-26T10:44:03.041Z,5332.00
2019-02-26T10:45:03.025Z,5332.00
2019-02-26T10:46:03.051Z,5336.00
2019-02-26T10:47:04.060Z,5348.00
2019-02-26T10:48:02.985Z,5352.00
2019-02-26T10:49:02.963Z,5360.00
2019-02-26T10:50:02.958Z,5364.00
2019-02-26T10:51:06.094Z,5368.00
2019-02-26T10:52:02.995Z,5360.00
2019-02-26T10:53:09.649Z,5368.00
2019-02-26T10:54:08.256Z,5372.00
2019-02-26T10:55:02.903Z,5380.00
2019-02-26T10:56:02.881Z,5380.00
2019-02-26T10:57:06.449Z,5388.00
2019-02-26T10:58:07.106Z,5388.00
2019-02-26T10:59:06.822Z,5392.00
2019-02-26T11:00:06.410Z,5400.00
2019-02-26T11:01:05.233Z,5408.00
2019-02-26T11:02:03.193Z,5412.00
2019-02-26T11:03:02.818Z,5424.00
2019-02-26T11:04:04.377Z,5436.00
2019-02-26T11:05:02.789Z,5448.00
2019-02-26T11:06:04.626Z,5452.00
2019-02-26T11:07:04.942Z,5456.00
2019-02-26T11:08:08.838Z,5460.00
2019-02-26T11:09:04.340Z,5464.00
2019-02-26T11:10:03.269Z,5472.00
2019-02-26T11:11:04.704Z,5476.00
2019-02-26T11:12:05.191Z,5488.00
2019-02-26T11:13:02.694Z,5492.00
2019-02-26T11:14:05.127Z,5496.00
2019-02-26T11:15:04.933Z,5504.00
2019-02-26T11:16:03.112Z,5512.00
2019-02-26T11:17:02.726Z,5520.00
2019-02-26T11:18:02.636Z,5520.00
2019-02-26T11:19:04.373Z,5528.00
2019-02-26T11:20:04.669Z,5536.00
2019-02-26T11:21:02.625Z,5544.00
2019-02-26T11:22:04.208Z,5548.00
2019-02-26T11:23:04.131Z,5560.00
2019-02-26T11:24:03.657Z,5564.00
2019-02-26T11:25:02.560Z,5572.00
2019-02-26T11:26:04.178Z,5584.00
2019-02-26T11:27:02.626Z,5588.00
2019-02-26T11:28:04.756Z,5600.00
2019-02-26T11:29:02.517Z,5608.00
2019-02-26T11:30:05.005Z,5616.00
2019-02-26T11:31:02.637Z,5620.00
2019-02-26T11:32:04.524Z,5628.00
2019-02-26T11:33:05.369Z,5644.00
2019-02-26T11:34:04.032Z,5648.00
2019-02-26T11:35:02.745Z,5660.00
2019-02-26T11:36:03.070Z,5660.00
2019-02-26T11:37:03.309Z,5668.00
2019-02-26T11:38:03.490Z,5676.00
2019-02-26T11:39:05.040Z,5688.00
2019-02-26T11:40:03.622Z,5696.00
2019-02-26T11:41:02.405Z,5708.00
2019-02-26T11:42:02.380Z,5716.00
2019-02-26T11:43:11.265Z,5732.00
2019-02-26T11:44:07.149Z,5732.00
2019-02-26T11:45:02.335Z,5740.00
2019-02-26T11:46:03.804Z,5748.00
2019-02-26T11:47:02.389Z,5760.00
2019-02-26T11:48:03.706Z,5768.00
2019-02-26T11:49:02.340Z,5776.00
2019-02-26T11:50:04.749Z,5784.00
2019-02-26T11:51:02.306Z,5800.00
2019-02-26T11:52:04.417Z,5808.00
2019-02-26T11:53:02.309Z,5824.00
2019-02-26T11:54:04.863Z,5832.00
2019-02-26T11:55:05.784Z,5844.00
2019-02-26T11:56:02.205Z,5856.00
2019-02-26T11:57:04.311Z,5864.00
2019-02-26T11:58:05.643Z,5872.00
2019-02-26T11:59:06.563Z,5888.00
2019-02-26T12:00:04.338Z,5896.00
2019-02-26T12:01:02.177Z,5912.00
2019-02-26T12:02:04.534Z,5924.00
2019-02-26T12:03:02.147Z,5936.00
2019-02-26T12:04:04.114Z,5948.00
2019-02-26T12:05:02.890Z,5960.00
2019-02-26T12:06:02.265Z,5972.00
2019-02-26T12:07:04.143Z,5976.00
2019-02-26T12:08:02.144Z,6000.00
2019-02-26T12:09:02.945Z,6016.00
2019-02-26T12:10:09.278Z,6036.00
2019-02-26T12:11:03.963Z,6048.00
2019-02-26T12:12:03.500Z,6068.00
2019-02-26T12:13:02.324Z,6080.00
2019-02-26T12:14:02.014Z,6096.00
2019-02-26T12:15:04.125Z,6112.00
2019-02-26T12:16:02.062Z,6124.00
2019-02-26T12:17:01.987Z,6136.00
2019-02-26T12:18:02.280Z,6148.00
2019-02-26T12:19:04.054Z,6164.00
2019-02-26T12:20:01.941Z,6180.00
2019-02-26T12:21:03.477Z,6200.00
2019-02-26T12:22:03.520Z,6216.00
2019-02-26T12:23:01.923Z,6240.00
2019-02-26T12:24:03.368Z,6256.00
2019-02-26T12:25:05.114Z,6280.00
2019-02-26T12:26:03.932Z,6300.00
2019-02-26T12:27:01.869Z,6332.00
2019-02-26T12:28:02.857Z,6360.00
2019-02-26T12:29:02.540Z,6388.00
2019-02-26T12:30:01.832Z,6400.00
2019-02-26T12:31:04.026Z,6428.00
2019-02-26T12:32:04.568Z,6456.00
2019-02-26T12:33:01.808Z,6484.00
2019-02-26T12:34:01.787Z,6508.00
2019-02-26T12:35:03.416Z,6536.00
2019-02-26T12:36:02.565Z,6580.00
2019-02-26T12:37:02.683Z,6628.00
2019-02-26T12:39:02.735Z,6720.00
2019-02-26T12:40:01.745Z,6756.00
2019-02-26T12:41:01.734Z,6804.00
2019-02-26T12:42:01.706Z,6860.00
2019-02-26T12:43:02.729Z,6908.00
2019-02-26T12:44:04.096Z,6960.00